sensor_id;sensor_type;location;lat;lon;timestamp;P1;durP1;ratioP1;P2;durP2;ratioP2
40154;SDS011;25875;48.202;16.334;2023-06-22T00:01:15;9.65;;;4.75;;
40154;SDS011;25875;48.202;16.334;2023-06-22T00:03:42;8.20;;;5.28;;
40154;SDS011;25875;48.202;16.334;2023-06-22T00:06:09;10.68;;;4.90;;
40154;SDS011;25875;48.202;16.334;2023-06-22T00:08:37;7.35;;;4.82;;
40154;SDS011;25875;48.202;16.334;2023-06-22T00:11:04;11.15;;;5.03;;
40154;SDS011;25875;48.202;16.334;2023-06-22T00:13:31;12.75;;;5.32;;
40154;SDS011;25875;48.202;16.334;2023-06-22T00:15:58;19.17;;;13.35;;
40154;SDS011;25875;48.202;16.334;2023-06-22T00:18:24;13.07;;;9.70;;
40154;SDS011;25875;48.202;16.334;2023-06-22T00:20:53;9.93;;;6.65;;
40154;SDS011;25875;48.202;16.334;2023-06-22T00:23:23;7.95;;;4.97;;
40154;SDS011;25875;48.202;16.334;2023-06-22T00:25:51;11.13;;;5.53;;
40154;SDS011;25875;48.202;16.334;2023-06-22T00:28:18;6.85;;;4.68;;
40154;SDS011;25875;48.202;16.334;2023-06-22T00:30:45;8.07;;;4.68;;
40154;SDS011;25875;48.202;16.334;2023-06-22T00:33:12;9.75;;;5.15;;
40154;SDS011;25875;48.202;16.334;2023-06-22T00:35:41;7.15;;;4.60;;
40154;SDS011;25875;48.202;16.334;2023-06-22T00:38:08;8.57;;;4.95;;
40154;SDS011;25875;48.202;16.334;2023-06-22T00:40:35;8.65;;;4.88;;
40154;SDS011;25875;48.202;16.334;2023-06-22T00:43:03;11.07;;;4.88;;
40154;SDS011;25875;48.202;16.334;2023-06-22T00:45:31;10.23;;;5.63;;
40154;SDS011;25875;48.202;16.334;2023-06-22T00:47:58;9.20;;;5.35;;
40154;SDS011;25875;48.202;16.334;2023-06-22T00:50:26;9.07;;;5.10;;
40154;SDS011;25875;48.202;16.334;2023-06-22T00:52:54;12.20;;;5.13;;
40154;SDS011;25875;48.202;16.334;2023-06-22T00:55:23;10.52;;;5.05;;
40154;SDS011;25875;48.202;16.334;2023-06-22T00:57:51;8.00;;;4.43;;
40154;SDS011;25875;48.202;16.334;2023-06-22T01:00:22;6.15;;;4.70;;
40154;SDS011;25875;48.202;16.334;2023-06-22T01:02:50;12.57;;;4.50;;
40154;SDS011;25875;48.202;16.334;2023-06-22T01:05:17;13.15;;;5.57;;
40154;SDS011;25875;48.202;16.334;2023-06-22T01:07:47;7.85;;;4.70;;
40154;SDS011;25875;48.202;16.334;2023-06-22T01:10:24;9.38;;;5.00;;
40154;SDS011;25875;48.202;16.334;2023-06-22T01:12:57;7.18;;;4.32;;
40154;SDS011;25875;48.202;16.334;2023-06-22T01:15:29;6.80;;;4.60;;
40154;SDS011;25875;48.202;16.334;2023-06-22T01:18:01;7.03;;;4.97;;
40154;SDS011;25875;48.202;16.334;2023-06-22T01:20:30;7.75;;;4.60;;
40154;SDS011;25875;48.202;16.334;2023-06-22T01:23:05;8.07;;;4.65;;
40154;SDS011;25875;48.202;16.334;2023-06-22T01:25:41;8.63;;;6.05;;
40154;SDS011;25875;48.202;16.334;2023-06-22T01:28:17;9.88;;;4.50;;
40154;SDS011;25875;48.202;16.334;2023-06-22T01:30:53;7.90;;;4.68;;
40154;SDS011;25875;48.202;16.334;2023-06-22T01:33:29;9.68;;;5.00;;
40154;SDS011;25875;48.202;16.334;2023-06-22T01:35:59;8.80;;;5.13;;
40154;SDS011;25875;48.202;16.334;2023-06-22T01:38:27;13.30;;;4.93;;
40154;SDS011;25875;48.202;16.334;2023-06-22T01:40:55;8.43;;;4.78;;
40154;SDS011;25875;48.202;16.334;2023-06-22T01:43:24;6.38;;;4.25;;
40154;SDS011;25875;48.202;16.334;2023-06-22T01:45:54;10.02;;;4.63;;
40154;SDS011;25875;48.202;16.334;2023-06-22T01:48:22;7.85;;;5.13;;
40154;SDS011;25875;48.202;16.334;2023-06-22T01:50:51;10.82;;;4.80;;
40154;SDS011;25875;48.202;16.334;2023-06-22T01:53:20;12.63;;;5.00;;
40154;SDS011;25875;48.202;16.334;2023-06-22T01:55:47;6.80;;;4.50;;
40154;SDS011;25875;48.202;16.334;2023-06-22T01:58:15;6.05;;;4.20;;
40154;SDS011;25875;48.202;16.334;2023-06-22T02:00:44;7.25;;;3.97;;
40154;SDS011;25875;48.202;16.334;2023-06-22T02:03:17;8.30;;;4.78;;
40154;SDS011;25875;48.202;16.334;2023-06-22T02:05:48;6.68;;;3.78;;
40154;SDS011;25875;48.202;16.334;2023-06-22T02:08:17;9.95;;;4.32;;
40154;SDS011;25875;48.202;16.334;2023-06-22T02:10:47;6.03;;;4.13;;
40154;SDS011;25875;48.202;16.334;2023-06-22T02:13:15;8.82;;;4.28;;
40154;SDS011;25875;48.202;16.334;2023-06-22T02:15:43;6.53;;;4.05;;
40154;SDS011;25875;48.202;16.334;2023-06-22T02:18:13;7.88;;;4.90;;
40154;SDS011;25875;48.202;16.334;2023-06-22T02:20:41;7.75;;;4.90;;
40154;SDS011;25875;48.202;16.334;2023-06-22T02:23:09;11.63;;;4.90;;
40154;SDS011;25875;48.202;16.334;2023-06-22T02:25:36;7.68;;;4.80;;
40154;SDS011;25875;48.202;16.334;2023-06-22T02:28:03;10.18;;;4.47;;
40154;SDS011;25875;48.202;16.334;2023-06-22T02:30:31;9.18;;;4.55;;
40154;SDS011;25875;48.202;16.334;2023-06-22T02:33:00;6.57;;;4.75;;
40154;SDS011;25875;48.202;16.334;2023-06-22T02:35:27;9.13;;;4.97;;
40154;SDS011;25875;48.202;16.334;2023-06-22T02:37:58;11.40;;;5.10;;
40154;SDS011;25875;48.202;16.334;2023-06-22T02:40:24;10.30;;;4.72;;
40154;SDS011;25875;48.202;16.334;2023-06-22T02:42:51;8.23;;;4.03;;
40154;SDS011;25875;48.202;16.334;2023-06-22T02:45:18;7.72;;;4.75;;
40154;SDS011;25875;48.202;16.334;2023-06-22T02:47:45;14.80;;;5.53;;
40154;SDS011;25875;48.202;16.334;2023-06-22T02:50:13;8.18;;;4.20;;
40154;SDS011;25875;48.202;16.334;2023-06-22T02:52:40;8.20;;;4.82;;
40154;SDS011;25875;48.202;16.334;2023-06-22T02:55:09;6.88;;;4.20;;
40154;SDS011;25875;48.202;16.334;2023-06-22T02:57:35;9.25;;;4.75;;
40154;SDS011;25875;48.202;16.334;2023-06-22T03:00:02;10.07;;;4.25;;
40154;SDS011;25875;48.202;16.334;2023-06-22T03:02:40;7.45;;;4.82;;
40154;SDS011;25875;48.202;16.334;2023-06-22T03:05:07;9.93;;;4.63;;
40154;SDS011;25875;48.202;16.334;2023-06-22T03:07:38;8.02;;;4.85;;
40154;SDS011;25875;48.202;16.334;2023-06-22T03:10:06;6.53;;;4.95;;
40154;SDS011;25875;48.202;16.334;2023-06-22T03:12:35;8.93;;;4.40;;
40154;SDS011;25875;48.202;16.334;2023-06-22T03:15:03;9.35;;;4.95;;
40154;SDS011;25875;48.202;16.334;2023-06-22T03:17:31;8.25;;;4.65;;
40154;SDS011;25875;48.202;16.334;2023-06-22T03:19:58;8.32;;;4.85;;
40154;SDS011;25875;48.202;16.334;2023-06-22T03:22:25;7.40;;;4.28;;
40154;SDS011;25875;48.202;16.334;2023-06-22T03:24:52;6.82;;;3.97;;
40154;SDS011;25875;48.202;16.334;2023-06-22T03:27:19;9.23;;;5.40;;
40154;SDS011;25875;48.202;16.334;2023-06-22T03:29:48;12.85;;;5.20;;
40154;SDS011;25875;48.202;16.334;2023-06-22T03:32:14;8.70;;;4.38;;
40154;SDS011;25875;48.202;16.334;2023-06-22T03:34:41;7.97;;;4.63;;
40154;SDS011;25875;48.202;16.334;2023-06-22T03:37:12;7.03;;;5.63;;
40154;SDS011;25875;48.202;16.334;2023-06-22T03:39:40;10.32;;;4.82;;
40154;SDS011;25875;48.202;16.334;2023-06-22T03:42:07;7.80;;;4.22;;
40154;SDS011;25875;48.202;16.334;2023-06-22T03:44:34;10.32;;;4.90;;
40154;SDS011;25875;48.202;16.334;2023-06-22T03:47:03;9.70;;;4.15;;
40154;SDS011;25875;48.202;16.334;2023-06-22T03:49:32;7.97;;;4.72;;
40154;SDS011;25875;48.202;16.334;2023-06-22T03:51:59;8.68;;;4.95;;
40154;SDS011;25875;48.202;16.334;2023-06-22T03:54:26;8.15;;;4.07;;
40154;SDS011;25875;48.202;16.334;2023-06-22T03:56:53;8.70;;;5.60;;
40154;SDS011;25875;48.202;16.334;2023-06-22T03:59:19;8.15;;;5.32;;
40154;SDS011;25875;48.202;16.334;2023-06-22T04:01:46;10.55;;;4.65;;
40154;SDS011;25875;48.202;16.334;2023-06-22T04:04:14;6.90;;;4.95;;
40154;SDS011;25875;48.202;16.334;2023-06-22T04:06:41;7.53;;;5.10;;
40154;SDS011;25875;48.202;16.334;2023-06-22T04:09:08;10.55;;;5.25;;
40154;SDS011;25875;48.202;16.334;2023-06-22T04:11:35;8.73;;;5.50;;
40154;SDS011;25875;48.202;16.334;2023-06-22T04:14:01;8.38;;;5.93;;
40154;SDS011;25875;48.202;16.334;2023-06-22T04:16:28;8.27;;;5.43;;
40154;SDS011;25875;48.202;16.334;2023-06-22T04:18:55;11.70;;;5.60;;
40154;SDS011;25875;48.202;16.334;2023-06-22T04:21:23;10.32;;;5.80;;
40154;SDS011;25875;48.202;16.334;2023-06-22T04:23:50;9.38;;;5.28;;
40154;SDS011;25875;48.202;16.334;2023-06-22T04:26:16;8.40;;;5.13;;
40154;SDS011;25875;48.202;16.334;2023-06-22T04:28:46;8.77;;;5.35;;
40154;SDS011;25875;48.202;16.334;2023-06-22T04:31:16;8.30;;;5.45;;
40154;SDS011;25875;48.202;16.334;2023-06-22T04:33:43;10.48;;;5.47;;
40154;SDS011;25875;48.202;16.334;2023-06-22T04:36:10;8.80;;;5.15;;
40154;SDS011;25875;48.202;16.334;2023-06-22T04:38:40;9.85;;;6.22;;
40154;SDS011;25875;48.202;16.334;2023-06-22T04:41:07;9.32;;;5.45;;
40154;SDS011;25875;48.202;16.334;2023-06-22T04:43:39;9.52;;;4.93;;
40154;SDS011;25875;48.202;16.334;2023-06-22T04:46:06;8.48;;;5.05;;
40154;SDS011;25875;48.202;16.334;2023-06-22T04:48:33;11.25;;;5.65;;
40154;SDS011;25875;48.202;16.334;2023-06-22T04:51:00;12.82;;;5.18;;
40154;SDS011;25875;48.202;16.334;2023-06-22T04:53:28;7.88;;;4.75;;
40154;SDS011;25875;48.202;16.334;2023-06-22T04:55:57;12.95;;;5.47;;
40154;SDS011;25875;48.202;16.334;2023-06-22T04:58:23;11.35;;;5.68;;
40154;SDS011;25875;48.202;16.334;2023-06-22T05:00:52;8.38;;;5.10;;
40154;SDS011;25875;48.202;16.334;2023-06-22T05:03:22;8.27;;;5.25;;
40154;SDS011;25875;48.202;16.334;2023-06-22T05:05:51;8.48;;;5.60;;
40154;SDS011;25875;48.202;16.334;2023-06-22T05:08:18;6.90;;;4.85;;
40154;SDS011;25875;48.202;16.334;2023-06-22T05:10:45;8.50;;;5.25;;
40154;SDS011;25875;48.202;16.334;2023-06-22T05:13:14;8.20;;;4.55;;
40154;SDS011;25875;48.202;16.334;2023-06-22T05:15:40;9.73;;;4.47;;
40154;SDS011;25875;48.202;16.334;2023-06-22T05:18:07;11.25;;;4.88;;
40154;SDS011;25875;48.202;16.334;2023-06-22T05:20:36;7.82;;;4.20;;
40154;SDS011;25875;48.202;16.334;2023-06-22T05:23:03;9.45;;;4.82;;
40154;SDS011;25875;48.202;16.334;2023-06-22T05:25:30;13.25;;;5.13;;
40154;SDS011;25875;48.202;16.334;2023-06-22T05:27:57;12.10;;;5.38;;
40154;SDS011;25875;48.202;16.334;2023-06-22T05:30:25;9.85;;;5.15;;
40154;SDS011;25875;48.202;16.334;2023-06-22T05:32:53;11.15;;;4.40;;
40154;SDS011;25875;48.202;16.334;2023-06-22T05:35:20;10.30;;;6.47;;
40154;SDS011;25875;48.202;16.334;2023-06-22T05:37:47;8.63;;;5.32;;
40154;SDS011;25875;48.202;16.334;2023-06-22T05:40:14;9.25;;;4.78;;
40154;SDS011;25875;48.202;16.334;2023-06-22T05:42:41;10.15;;;4.30;;
40154;SDS011;25875;48.202;16.334;2023-06-22T05:45:08;11.90;;;5.07;;
40154;SDS011;25875;48.202;16.334;2023-06-22T05:47:37;10.18;;;4.85;;
40154;SDS011;25875;48.202;16.334;2023-06-22T05:50:04;9.18;;;4.80;;
40154;SDS011;25875;48.202;16.334;2023-06-22T05:52:33;12.02;;;4.30;;
40154;SDS011;25875;48.202;16.334;2023-06-22T05:55:01;6.68;;;3.95;;
40154;SDS011;25875;48.202;16.334;2023-06-22T05:57:29;8.98;;;4.50;;
40154;SDS011;25875;48.202;16.334;2023-06-22T05:59:55;11.30;;;4.15;;
40154;SDS011;25875;48.202;16.334;2023-06-22T06:02:22;6.75;;;4.70;;
40154;SDS011;25875;48.202;16.334;2023-06-22T06:04:51;7.50;;;4.22;;
40154;SDS011;25875;48.202;16.334;2023-06-22T06:07:19;7.60;;;4.25;;
40154;SDS011;25875;48.202;16.334;2023-06-22T06:09:47;10.07;;;4.63;;
40154;SDS011;25875;48.202;16.334;2023-06-22T06:12:14;7.57;;;5.22;;
40154;SDS011;25875;48.202;16.334;2023-06-22T06:14:41;9.73;;;5.07;;
40154;SDS011;25875;48.202;16.334;2023-06-22T06:17:08;9.05;;;4.68;;
40154;SDS011;25875;48.202;16.334;2023-06-22T06:19:34;14.98;;;4.68;;
40154;SDS011;25875;48.202;16.334;2023-06-22T06:22:03;12.05;;;5.18;;
40154;SDS011;25875;48.202;16.334;2023-06-22T06:24:30;9.05;;;4.63;;
40154;SDS011;25875;48.202;16.334;2023-06-22T06:26:56;7.35;;;4.30;;
40154;SDS011;25875;48.202;16.334;2023-06-22T06:29:23;10.98;;;4.85;;
40154;SDS011;25875;48.202;16.334;2023-06-22T06:31:50;9.32;;;5.63;;
40154;SDS011;25875;48.202;16.334;2023-06-22T06:34:17;10.98;;;5.43;;
40154;SDS011;25875;48.202;16.334;2023-06-22T06:36:43;12.00;;;7.05;;
40154;SDS011;25875;48.202;16.334;2023-06-22T06:39:12;10.60;;;6.13;;
40154;SDS011;25875;48.202;16.334;2023-06-22T06:41:38;10.77;;;5.80;;
40154;SDS011;25875;48.202;16.334;2023-06-22T06:44:05;9.05;;;5.90;;
40154;SDS011;25875;48.202;16.334;2023-06-22T06:46:32;10.70;;;6.70;;
40154;SDS011;25875;48.202;16.334;2023-06-22T06:48:59;13.50;;;7.38;;
40154;SDS011;25875;48.202;16.334;2023-06-22T06:51:26;12.57;;;7.20;;
40154;SDS011;25875;48.202;16.334;2023-06-22T06:53:52;12.88;;;6.80;;
40154;SDS011;25875;48.202;16.334;2023-06-22T06:56:20;17.02;;;7.88;;
40154;SDS011;25875;48.202;16.334;2023-06-22T06:58:49;14.52;;;8.55;;
40154;SDS011;25875;48.202;16.334;2023-06-22T07:01:16;16.85;;;9.30;;
40154;SDS011;25875;48.202;16.334;2023-06-22T07:03:44;14.23;;;9.63;;
40154;SDS011;25875;48.202;16.334;2023-06-22T07:06:11;15.20;;;9.43;;
40154;SDS011;25875;48.202;16.334;2023-06-22T07:08:39;15.30;;;10.10;;
40154;SDS011;25875;48.202;16.334;2023-06-22T07:11:06;17.52;;;11.48;;
40154;SDS011;25875;48.202;16.334;2023-06-22T07:13:34;15.70;;;11.48;;
40154;SDS011;25875;48.202;16.334;2023-06-22T07:16:01;18.60;;;10.82;;
40154;SDS011;25875;48.202;16.334;2023-06-22T07:18:28;14.70;;;10.60;;
40154;SDS011;25875;48.202;16.334;2023-06-22T07:20:55;16.50;;;10.43;;
40154;SDS011;25875;48.202;16.334;2023-06-22T07:23:22;14.80;;;9.25;;
40154;SDS011;25875;48.202;16.334;2023-06-22T07:25:49;14.95;;;10.73;;
40154;SDS011;25875;48.202;16.334;2023-06-22T07:28:16;13.80;;;9.45;;
40154;SDS011;25875;48.202;16.334;2023-06-22T07:30:44;12.48;;;9.23;;
40154;SDS011;25875;48.202;16.334;2023-06-22T07:33:12;16.17;;;8.38;;
40154;SDS011;25875;48.202;16.334;2023-06-22T07:35:39;24.58;;;10.63;;
40154;SDS011;25875;48.202;16.334;2023-06-22T07:38:05;14.65;;;10.23;;
40154;SDS011;25875;48.202;16.334;2023-06-22T07:40:34;18.48;;;9.40;;
40154;SDS011;25875;48.202;16.334;2023-06-22T07:43:01;15.10;;;9.70;;
40154;SDS011;25875;48.202;16.334;2023-06-22T07:45:28;13.48;;;11.55;;
40154;SDS011;25875;48.202;16.334;2023-06-22T07:47:57;15.85;;;9.98;;
40154;SDS011;25875;48.202;16.334;2023-06-22T07:50:23;15.93;;;9.88;;
40154;SDS011;25875;48.202;16.334;2023-06-22T07:52:51;14.95;;;9.35;;
40154;SDS011;25875;48.202;16.334;2023-06-22T07:55:19;14.68;;;7.80;;
40154;SDS011;25875;48.202;16.334;2023-06-22T07:57:46;12.40;;;8.98;;
40154;SDS011;25875;48.202;16.334;2023-06-22T08:00:13;16.63;;;10.18;;
40154;SDS011;25875;48.202;16.334;2023-06-22T08:02:41;14.93;;;8.88;;
40154;SDS011;25875;48.202;16.334;2023-06-22T08:05:10;11.55;;;8.30;;
40154;SDS011;25875;48.202;16.334;2023-06-22T08:07:37;14.00;;;8.07;;
40154;SDS011;25875;48.202;16.334;2023-06-22T08:10:04;18.17;;;8.68;;
40154;SDS011;25875;48.202;16.334;2023-06-22T08:12:32;12.98;;;9.05;;
40154;SDS011;25875;48.202;16.334;2023-06-22T08:14:58;10.93;;;7.95;;
40154;SDS011;25875;48.202;16.334;2023-06-22T08:17:26;13.02;;;8.70;;
40154;SDS011;25875;48.202;16.334;2023-06-22T08:19:53;15.25;;;9.93;;
40154;SDS011;25875;48.202;16.334;2023-06-22T08:22:21;11.93;;;7.72;;
40154;SDS011;25875;48.202;16.334;2023-06-22T08:24:48;12.93;;;8.43;;
40154;SDS011;25875;48.202;16.334;2023-06-22T08:27:15;14.38;;;8.55;;
40154;SDS011;25875;48.202;16.334;2023-06-22T08:29:43;14.57;;;8.32;;
40154;SDS011;25875;48.202;16.334;2023-06-22T08:32:11;14.55;;;8.52;;
40154;SDS011;25875;48.202;16.334;2023-06-22T08:34:38;12.52;;;8.00;;
40154;SDS011;25875;48.202;16.334;2023-06-22T08:37:07;12.23;;;9.00;;
40154;SDS011;25875;48.202;16.334;2023-06-22T08:39:35;16.05;;;9.93;;
40154;SDS011;25875;48.202;16.334;2023-06-22T08:42:02;14.02;;;8.50;;
40154;SDS011;25875;48.202;16.334;2023-06-22T08:44:30;14.85;;;9.02;;
40154;SDS011;25875;48.202;16.334;2023-06-22T08:46:57;16.00;;;10.05;;
40154;SDS011;25875;48.202;16.334;2023-06-22T08:49:23;12.85;;;8.00;;
40154;SDS011;25875;48.202;16.334;2023-06-22T08:51:50;12.65;;;7.68;;
40154;SDS011;25875;48.202;16.334;2023-06-22T08:54:19;12.25;;;8.25;;
40154;SDS011;25875;48.202;16.334;2023-06-22T08:56:47;12.75;;;9.15;;
40154;SDS011;25875;48.202;16.334;2023-06-22T08:59:14;15.70;;;8.43;;
40154;SDS011;25875;48.202;16.334;2023-06-22T09:01:41;10.35;;;7.95;;
40154;SDS011;25875;48.202;16.334;2023-06-22T09:04:13;15.50;;;9.30;;
40154;SDS011;25875;48.202;16.334;2023-06-22T09:06:41;16.35;;;8.82;;
40154;SDS011;25875;48.202;16.334;2023-06-22T09:09:10;10.77;;;7.63;;
40154;SDS011;25875;48.202;16.334;2023-06-22T09:11:37;14.48;;;8.40;;
40154;SDS011;25875;48.202;16.334;2023-06-22T09:14:05;12.73;;;8.13;;
40154;SDS011;25875;48.202;16.334;2023-06-22T09:16:32;10.65;;;7.90;;
40154;SDS011;25875;48.202;16.334;2023-06-22T09:19:00;10.85;;;7.63;;
40154;SDS011;25875;48.202;16.334;2023-06-22T09:21:27;10.00;;;7.50;;
40154;SDS011;25875;48.202;16.334;2023-06-22T09:23:54;14.27;;;8.65;;
40154;SDS011;25875;48.202;16.334;2023-06-22T09:26:21;10.55;;;7.95;;
40154;SDS011;25875;48.202;16.334;2023-06-22T09:28:48;12.18;;;7.90;;
40154;SDS011;25875;48.202;16.334;2023-06-22T09:31:17;11.20;;;7.45;;
40154;SDS011;25875;48.202;16.334;2023-06-22T09:33:50;12.13;;;9.23;;
40154;SDS011;25875;48.202;16.334;2023-06-22T09:36:17;13.20;;;8.73;;
40154;SDS011;25875;48.202;16.334;2023-06-22T09:38:44;12.30;;;8.73;;
40154;SDS011;25875;48.202;16.334;2023-06-22T09:41:11;15.63;;;8.57;;
40154;SDS011;25875;48.202;16.334;2023-06-22T09:43:37;10.32;;;7.55;;
40154;SDS011;25875;48.202;16.334;2023-06-22T09:46:04;13.02;;;7.72;;
40154;SDS011;25875;48.202;16.334;2023-06-22T09:48:33;14.35;;;8.05;;
40154;SDS011;25875;48.202;16.334;2023-06-22T09:51:00;14.38;;;7.88;;
40154;SDS011;25875;48.202;16.334;2023-06-22T09:53:27;10.52;;;8.10;;
40154;SDS011;25875;48.202;16.334;2023-06-22T09:55:54;11.32;;;9.93;;
40154;SDS011;25875;48.202;16.334;2023-06-22T09:58:22;9.32;;;7.72;;
40154;SDS011;25875;48.202;16.334;2023-06-22T10:00:49;8.45;;;7.05;;
40154;SDS011;25875;48.202;16.334;2023-06-22T10:03:15;10.10;;;7.88;;
40154;SDS011;25875;48.202;16.334;2023-06-22T10:05:44;13.98;;;7.85;;
40154;SDS011;25875;48.202;16.334;2023-06-22T10:08:11;12.20;;;7.60;;
40154;SDS011;25875;48.202;16.334;2023-06-22T10:10:37;13.70;;;8.43;;
40154;SDS011;25875;48.202;16.334;2023-06-22T10:13:07;10.90;;;8.05;;
40154;SDS011;25875;48.202;16.334;2023-06-22T10:15:35;12.80;;;8.32;;
40154;SDS011;25875;48.202;16.334;2023-06-22T10:18:02;14.00;;;7.65;;
40154;SDS011;25875;48.202;16.334;2023-06-22T10:20:29;8.93;;;6.90;;
40154;SDS011;25875;48.202;16.334;2023-06-22T10:22:57;11.50;;;7.03;;
40154;SDS011;25875;48.202;16.334;2023-06-22T10:25:24;9.65;;;7.00;;
40154;SDS011;25875;48.202;16.334;2023-06-22T10:27:51;9.93;;;6.85;;
40154;SDS011;25875;48.202;16.334;2023-06-22T10:30:18;9.88;;;7.40;;
40154;SDS011;25875;48.202;16.334;2023-06-22T10:32:45;12.75;;;7.00;;
40154;SDS011;25875;48.202;16.334;2023-06-22T10:35:12;8.15;;;6.05;;
40154;SDS011;25875;48.202;16.334;2023-06-22T10:37:41;10.70;;;6.13;;
40154;SDS011;25875;48.202;16.334;2023-06-22T10:40:11;12.32;;;6.30;;
40154;SDS011;25875;48.202;16.334;2023-06-22T10:42:38;11.25;;;5.75;;
40154;SDS011;25875;48.202;16.334;2023-06-22T10:45:06;8.32;;;4.75;;
40154;SDS011;25875;48.202;16.334;2023-06-22T10:47:34;9.57;;;5.40;;
40154;SDS011;25875;48.202;16.334;2023-06-22T10:50:01;9.93;;;5.35;;
40154;SDS011;25875;48.202;16.334;2023-06-22T10:52:27;10.40;;;4.93;;
40154;SDS011;25875;48.202;16.334;2023-06-22T10:54:54;9.18;;;4.15;;
40154;SDS011;25875;48.202;16.334;2023-06-22T10:57:22;6.97;;;3.85;;
40154;SDS011;25875;48.202;16.334;2023-06-22T10:59:49;6.55;;;4.47;;
40154;SDS011;25875;48.202;16.334;2023-06-22T11:02:16;7.50;;;4.45;;
40154;SDS011;25875;48.202;16.334;2023-06-22T11:04:43;7.70;;;4.22;;
40154;SDS011;25875;48.202;16.334;2023-06-22T11:07:11;8.30;;;5.03;;
40154;SDS011;25875;48.202;16.334;2023-06-22T11:09:37;10.05;;;5.00;;
40154;SDS011;25875;48.202;16.334;2023-06-22T11:12:05;6.13;;;4.43;;
40154;SDS011;25875;48.202;16.334;2023-06-22T11:14:34;6.72;;;4.80;;
40154;SDS011;25875;48.202;16.334;2023-06-22T11:17:00;7.82;;;5.55;;
40154;SDS011;25875;48.202;16.334;2023-06-22T11:19:28;8.93;;;5.07;;
40154;SDS011;25875;48.202;16.334;2023-06-22T11:21:55;11.05;;;4.90;;
40154;SDS011;25875;48.202;16.334;2023-06-22T11:24:21;11.18;;;6.35;;
40154;SDS011;25875;48.202;16.334;2023-06-22T11:26:48;12.50;;;6.50;;
40154;SDS011;25875;48.202;16.334;2023-06-22T11:29:15;10.50;;;6.43;;
40154;SDS011;25875;48.202;16.334;2023-06-22T11:31:43;9.75;;;6.25;;
40154;SDS011;25875;48.202;16.334;2023-06-22T11:34:10;8.48;;;6.45;;
40154;SDS011;25875;48.202;16.334;2023-06-22T11:36:36;11.57;;;6.88;;
40154;SDS011;25875;48.202;16.334;2023-06-22T11:39:03;11.80;;;6.60;;
40154;SDS011;25875;48.202;16.334;2023-06-22T11:41:31;7.60;;;6.28;;
40154;SDS011;25875;48.202;16.334;2023-06-22T11:43:57;9.65;;;7.13;;
40154;SDS011;25875;48.202;16.334;2023-06-22T11:46:24;11.48;;;6.03;;
40154;SDS011;25875;48.202;16.334;2023-06-22T11:48:53;8.05;;;5.47;;
40154;SDS011;25875;48.202;16.334;2023-06-22T11:53:36;9.18;;;5.22;;
40154;SDS011;25875;48.202;16.334;2023-06-22T11:56:03;7.28;;;4.90;;
40154;SDS011;25875;48.202;16.334;2023-06-22T11:58:30;12.32;;;6.20;;
40154;SDS011;25875;48.202;16.334;2023-06-22T12:00:56;11.25;;;5.22;;
40154;SDS011;25875;48.202;16.334;2023-06-22T12:03:23;8.70;;;5.38;;
40154;SDS011;25875;48.202;16.334;2023-06-22T12:05:50;9.48;;;5.05;;
40154;SDS011;25875;48.202;16.334;2023-06-22T12:08:17;10.85;;;5.20;;
40154;SDS011;25875;48.202;16.334;2023-06-22T12:10:45;10.88;;;5.88;;
40154;SDS011;25875;48.202;16.334;2023-06-22T12:13:12;9.57;;;4.55;;
40154;SDS011;25875;48.202;16.334;2023-06-22T12:15:39;9.80;;;4.85;;
40154;SDS011;25875;48.202;16.334;2023-06-22T12:18:06;7.40;;;3.95;;
40154;SDS011;25875;48.202;16.334;2023-06-22T12:20:34;8.15;;;4.45;;
40154;SDS011;25875;48.202;16.334;2023-06-22T12:23:01;12.10;;;4.70;;
40154;SDS011;25875;48.202;16.334;2023-06-22T12:25:28;8.15;;;4.60;;
40154;SDS011;25875;48.202;16.334;2023-06-22T12:27:56;10.60;;;4.60;;
40154;SDS011;25875;48.202;16.334;2023-06-22T12:30:23;8.52;;;4.72;;
40154;SDS011;25875;48.202;16.334;2023-06-22T12:32:50;7.35;;;4.70;;
40154;SDS011;25875;48.202;16.334;2023-06-22T12:35:16;9.80;;;4.68;;
40154;SDS011;25875;48.202;16.334;2023-06-22T12:37:43;10.90;;;5.10;;
40154;SDS011;25875;48.202;16.334;2023-06-22T12:40:10;7.22;;;4.45;;
40154;SDS011;25875;48.202;16.334;2023-06-22T12:42:37;7.28;;;4.28;;
40154;SDS011;25875;48.202;16.334;2023-06-22T12:45:07;7.88;;;4.53;;
40154;SDS011;25875;48.202;16.334;2023-06-22T12:47:34;9.10;;;5.10;;
40154;SDS011;25875;48.202;16.334;2023-06-22T12:50:01;11.98;;;5.00;;
40154;SDS011;25875;48.202;16.334;2023-06-22T12:52:29;7.43;;;4.80;;
40154;SDS011;25875;48.202;16.334;2023-06-22T12:54:56;10.00;;;4.53;;
40154;SDS011;25875;48.202;16.334;2023-06-22T12:57:23;9.95;;;4.70;;
40154;SDS011;25875;48.202;16.334;2023-06-22T12:59:50;9.60;;;5.75;;
40154;SDS011;25875;48.202;16.334;2023-06-22T13:02:18;11.68;;;5.13;;
40154;SDS011;25875;48.202;16.334;2023-06-22T13:04:45;9.50;;;4.50;;
40154;SDS011;25875;48.202;16.334;2023-06-22T13:07:12;8.20;;;4.85;;
40154;SDS011;25875;48.202;16.334;2023-06-22T13:09:38;6.88;;;5.05;;
40154;SDS011;25875;48.202;16.334;2023-06-22T13:12:05;6.95;;;4.93;;
40154;SDS011;25875;48.202;16.334;2023-06-22T13:14:33;10.68;;;5.75;;
40154;SDS011;25875;48.202;16.334;2023-06-22T13:16:59;10.77;;;5.57;;
40154;SDS011;25875;48.202;16.334;2023-06-22T13:19:27;11.55;;;6.57;;
40154;SDS011;25875;48.202;16.334;2023-06-22T13:21:57;10.43;;;5.55;;
40154;SDS011;25875;48.202;16.334;2023-06-22T13:24:24;11.40;;;5.10;;
40154;SDS011;25875;48.202;16.334;2023-06-22T13:26:51;11.20;;;5.57;;
40154;SDS011;25875;48.202;16.334;2023-06-22T13:29:18;8.80;;;4.95;;
40154;SDS011;25875;48.202;16.334;2023-06-22T13:31:45;9.07;;;5.93;;
40154;SDS011;25875;48.202;16.334;2023-06-22T13:34:11;7.35;;;4.88;;
40154;SDS011;25875;48.202;16.334;2023-06-22T13:36:40;8.45;;;5.35;;
40154;SDS011;25875;48.202;16.334;2023-06-22T13:39:06;8.02;;;5.40;;
40154;SDS011;25875;48.202;16.334;2023-06-22T13:41:33;11.77;;;6.03;;
40154;SDS011;25875;48.202;16.334;2023-06-22T13:44:00;10.73;;;5.78;;
40154;SDS011;25875;48.202;16.334;2023-06-22T13:46:27;11.35;;;5.10;;
40154;SDS011;25875;48.202;16.334;2023-06-22T13:48:54;7.57;;;4.93;;
40154;SDS011;25875;48.202;16.334;2023-06-22T13:51:21;10.43;;;5.18;;
40154;SDS011;25875;48.202;16.334;2023-06-22T13:53:49;8.43;;;5.18;;
40154;SDS011;25875;48.202;16.334;2023-06-22T13:56:15;8.52;;;5.20;;
40154;SDS011;25875;48.202;16.334;2023-06-22T13:58:42;10.13;;;5.90;;
40154;SDS011;25875;48.202;16.334;2023-06-22T14:01:09;12.50;;;6.70;;
40154;SDS011;25875;48.202;16.334;2023-06-22T14:03:36;8.70;;;5.32;;
40154;SDS011;25875;48.202;16.334;2023-06-22T14:06:02;12.43;;;5.95;;
40154;SDS011;25875;48.202;16.334;2023-06-22T14:08:29;8.38;;;6.05;;
40154;SDS011;25875;48.202;16.334;2023-06-22T14:10:57;9.07;;;6.10;;
40154;SDS011;25875;48.202;16.334;2023-06-22T14:13:24;7.38;;;4.85;;
40154;SDS011;25875;48.202;16.334;2023-06-22T14:15:51;8.77;;;5.60;;
40154;SDS011;25875;48.202;16.334;2023-06-22T14:18:19;8.35;;;4.53;;
40154;SDS011;25875;48.202;16.334;2023-06-22T14:20:47;17.15;;;6.70;;
40154;SDS011;25875;48.202;16.334;2023-06-22T14:23:14;8.77;;;4.93;;
40154;SDS011;25875;48.202;16.334;2023-06-22T14:25:41;9.23;;;5.95;;
40154;SDS011;25875;48.202;16.334;2023-06-22T14:28:09;10.23;;;5.78;;
40154;SDS011;25875;48.202;16.334;2023-06-22T14:30:35;10.52;;;6.25;;
40154;SDS011;25875;48.202;16.334;2023-06-22T14:33:02;7.68;;;5.72;;